createdAt,value
2018-10-07T00:00:35.634Z,8.23
2018-10-07T00:03:03.880Z,8.43
2018-10-07T00:05:32.104Z,9.30
2018-10-07T00:08:00.339Z,8.13
2018-10-07T00:10:29.423Z,8.57
2018-10-07T00:12:57.556Z,9.33
2018-10-07T00:15:25.711Z,7.80
2018-10-07T00:17:54.001Z,7.67
2018-10-07T00:20:22.237Z,8.50
2018-10-07T00:22:51.117Z,8.47
2018-10-07T00:25:19.263Z,9.30
2018-10-07T00:27:47.510Z,9.07
2018-10-07T00:30:15.693Z,8.50
2018-10-07T00:32:43.827Z,8.63
2018-10-07T00:35:12.044Z,9.80
2018-10-07T00:37:40.348Z,9.30
2018-10-07T00:40:08.567Z,8.43
2018-10-07T00:42:36.851Z,8.77
2018-10-07T00:45:05.079Z,7.83
2018-10-07T00:47:33.291Z,8.03
2018-10-07T00:50:01.516Z,7.50
2018-10-07T00:52:29.846Z,8.07
2018-10-07T00:54:58.047Z,8.33
2018-10-07T00:57:26.264Z,8.47
2018-10-07T00:59:54.506Z,8.27
2018-10-07T01:02:22.806Z,8.90
2018-10-07T01:04:50.907Z,8.77
2018-10-07T01:07:19.307Z,8.60
2018-10-07T01:09:47.571Z,8.83
2018-10-07T01:12:15.713Z,8.70
2018-10-07T01:14:43.879Z,8.73
2018-10-07T01:17:12.061Z,7.80
2018-10-07T01:19:40.373Z,8.97
2018-10-07T01:22:08.577Z,8.80
2018-10-07T01:24:36.975Z,8.53
2018-10-07T01:27:05.235Z,7.70
2018-10-07T01:29:33.605Z,7.77
2018-10-07T01:32:01.967Z,7.67
2018-10-07T01:34:30.100Z,7.60
2018-10-07T01:36:58.397Z,7.80
2018-10-07T01:39:26.810Z,7.30
2018-10-07T01:41:55.141Z,8.17
2018-10-07T01:44:23.941Z,8.17
2018-10-07T01:46:52.177Z,8.47
2018-10-07T01:49:20.671Z,8.23
2018-10-07T01:51:48.849Z,9.00
2018-10-07T01:54:17.016Z,9.73
2018-10-07T01:56:45.188Z,8.80
2018-10-07T01:59:13.403Z,9.50
2018-10-07T02:01:41.578Z,9.17
2018-10-07T02:04:09.752Z,8.20
2018-10-07T02:06:37.920Z,8.73
2018-10-07T02:09:09.060Z,8.77
2018-10-07T02:11:37.232Z,8.37
2018-10-07T02:14:05.548Z,9.07
2018-10-07T02:16:33.844Z,8.73
2018-10-07T02:19:02.556Z,8.83
2018-10-07T02:21:30.903Z,8.30
2018-10-07T02:23:59.135Z,8.97
2018-10-07T02:26:27.303Z,8.70
2018-10-07T02:28:55.499Z,8.70
2018-10-07T02:31:23.652Z,8.97
2018-10-07T02:33:51.802Z,8.73
2018-10-07T02:36:20.038Z,8.63
2018-10-07T02:38:48.250Z,9.13
2018-10-07T02:41:16.537Z,9.07
2018-10-07T02:43:45.380Z,9.03
2018-10-07T02:46:13.589Z,8.73
2018-10-07T02:48:41.748Z,9.70
2018-10-07T02:51:10.162Z,10.07
2018-10-07T02:53:38.720Z,9.70
2018-10-07T02:56:07.248Z,9.00
2018-10-07T02:58:35.666Z,9.73
2018-10-07T03:01:04.065Z,9.57
2018-10-07T03:03:32.335Z,7.93
2018-10-07T03:06:00.797Z,8.27
2018-10-07T03:08:28.986Z,7.70
2018-10-07T03:10:57.112Z,8.50
2018-10-07T03:13:25.336Z,8.40
2018-10-07T03:15:53.529Z,8.00
2018-10-07T03:18:21.799Z,8.07
2018-10-07T03:20:49.999Z,8.63
2018-10-07T03:23:18.237Z,8.40
2018-10-07T03:25:47.052Z,9.27
2018-10-07T03:28:16.005Z,8.90
2018-10-07T03:30:44.367Z,8.83
2018-10-07T03:33:12.573Z,9.50
2018-10-07T03:35:41.491Z,8.33
2018-10-07T03:38:09.620Z,9.13
2018-10-07T03:40:37.802Z,8.63
2018-10-07T03:43:06.058Z,8.93
2018-10-07T03:45:34.227Z,9.40
2018-10-07T03:48:03.129Z,9.33
2018-10-07T03:50:31.362Z,9.47
2018-10-07T03:52:59.600Z,9.83
2018-10-07T03:55:27.781Z,8.57
2018-10-07T03:57:55.924Z,8.60
2018-10-07T04:00:24.040Z,9.33
2018-10-07T04:02:53.128Z,9.43
2018-10-07T04:05:21.424Z,10.30
2018-10-07T04:07:49.726Z,9.80
2018-10-07T04:10:17.896Z,9.10
2018-10-07T04:12:46.124Z,8.20
2018-10-07T04:15:14.409Z,9.40
2018-10-07T04:17:42.631Z,9.67
2018-10-07T04:20:11.030Z,9.50
2018-10-07T04:22:39.171Z,9.10
2018-10-07T04:25:07.536Z,8.77
2018-10-07T04:27:35.884Z,8.80
2018-10-07T04:30:04.270Z,10.03
2018-10-07T04:32:32.449Z,10.73
2018-10-07T04:35:00.713Z,9.77
2018-10-07T04:37:29.036Z,9.97
2018-10-07T04:39:57.332Z,9.87
2018-10-07T04:42:25.679Z,9.60
2018-10-07T04:44:54.847Z,8.97
2018-10-07T04:47:22.959Z,11.10
2018-10-07T04:49:51.089Z,10.20
2018-10-07T04:52:19.253Z,9.53
2018-10-07T04:54:47.530Z,10.80
2018-10-07T04:57:16.345Z,9.53
2018-10-07T04:59:45.200Z,11.00
2018-10-07T05:02:13.431Z,10.53
2018-10-07T05:04:41.891Z,11.30
2018-10-07T05:07:10.803Z,10.83
2018-10-07T05:09:39.099Z,11.00
2018-10-07T05:12:09.013Z,10.57
2018-10-07T05:14:38.949Z,10.80
2018-10-07T05:17:08.365Z,10.60
2018-10-07T05:19:36.607Z,10.30
2018-10-07T05:22:04.840Z,10.50
2018-10-07T05:24:34.100Z,11.93
2018-10-07T05:27:02.517Z,11.00
2018-10-07T05:29:30.733Z,11.07
2018-10-07T05:31:59.149Z,11.67
2018-10-07T05:34:27.413Z,11.53
2018-10-07T05:36:55.615Z,12.63
2018-10-07T05:39:24.543Z,12.50
2018-10-07T05:41:52.911Z,12.80
2018-10-07T05:44:21.163Z,13.33
2018-10-07T05:46:50.115Z,13.37
2018-10-07T05:49:19.207Z,14.87
2018-10-07T05:51:47.314Z,16.53
2018-10-07T05:54:15.521Z,17.90
2018-10-07T05:56:43.964Z,17.33
2018-10-07T05:59:12.285Z,17.60
2018-10-07T06:01:43.135Z,17.87
2018-10-07T06:04:29.108Z,16.67
2018-10-07T06:07:01.500Z,19.77
2018-10-07T06:09:33.517Z,20.10
2018-10-07T06:12:01.808Z,20.27
2018-10-07T06:14:47.310Z,20.80
2018-10-07T06:17:16.340Z,21.47
2018-10-07T06:19:44.658Z,20.70
2018-10-07T06:22:13.548Z,20.53
2018-10-07T06:24:41.865Z,22.93
2018-10-07T06:27:10.360Z,23.83
2018-10-07T06:29:39.752Z,25.07
2018-10-07T06:32:07.970Z,23.70
2018-10-07T06:34:36.246Z,25.07
2018-10-07T06:37:04.752Z,25.83
2018-10-07T06:39:33.032Z,25.90
2018-10-07T06:42:01.248Z,26.73
2018-10-07T06:44:30.097Z,26.07
2018-10-07T06:46:58.323Z,26.40
2018-10-07T06:49:27.208Z,29.90
2018-10-07T06:51:55.428Z,27.77
2018-10-07T06:54:23.606Z,28.57
2018-10-07T06:56:51.923Z,28.57
2018-10-07T06:59:20.070Z,31.90
2018-10-07T07:01:48.437Z,29.93
2018-10-07T07:04:16.675Z,30.83
2018-10-07T07:06:44.863Z,31.77
2018-10-07T07:09:14.338Z,37.28
2018-10-07T07:11:42.577Z,33.53
2018-10-07T07:14:10.769Z,33.70
2018-10-07T07:16:39.607Z,32.40
2018-10-07T07:19:07.805Z,33.73
2018-10-07T07:21:35.912Z,35.70
2018-10-07T07:24:04.321Z,36.77
2018-10-07T07:26:32.733Z,38.83
2018-10-07T07:29:01.591Z,39.20
2018-10-07T07:31:30.154Z,39.90
2018-10-07T07:33:58.122Z,37.60
2018-10-07T07:36:26.329Z,35.17
2018-10-07T07:38:54.561Z,37.67
2018-10-07T07:41:23.050Z,37.67
2018-10-07T07:43:51.459Z,34.97
2018-10-07T07:46:19.725Z,32.90
2018-10-07T07:48:47.972Z,35.00
2018-10-07T07:51:16.191Z,35.17
2018-10-07T07:53:44.488Z,34.60
2018-10-07T07:56:13.260Z,36.87
2018-10-07T07:58:43.429Z,34.07
2018-10-07T08:01:11.631Z,38.27
2018-10-07T08:03:39.905Z,34.37
2018-10-07T08:06:08.085Z,35.60
2018-10-07T08:08:36.409Z,35.33
2018-10-07T08:11:04.554Z,37.17
2018-10-07T08:13:33.422Z,36.53
2018-10-07T08:16:01.642Z,36.90
2018-10-07T08:18:30.013Z,35.13
2018-10-07T08:20:58.196Z,35.37
2018-10-07T08:23:26.673Z,36.60
2018-10-07T08:25:54.812Z,33.23
2018-10-07T08:28:23.081Z,35.47
2018-10-07T08:30:51.403Z,31.63
2018-10-07T08:33:19.566Z,31.63
2018-10-07T08:35:48.730Z,34.90
2018-10-07T08:38:16.935Z,34.03
2018-10-07T08:40:45.862Z,34.63
2018-10-07T08:43:14.202Z,32.40
2018-10-07T08:45:42.647Z,33.37
2018-10-07T08:48:12.192Z,30.73
2018-10-07T08:50:40.650Z,33.83
2018-10-07T08:53:08.902Z,29.70
2018-10-07T08:55:37.125Z,31.57
2018-10-07T08:58:05.540Z,30.73
2018-10-07T09:00:33.691Z,31.07
2018-10-07T09:03:01.997Z,25.63
2018-10-07T09:05:30.283Z,27.87
2018-10-07T09:07:58.633Z,30.00
2018-10-07T09:10:27.949Z,29.20
2018-10-07T09:12:56.232Z,28.03
2018-10-07T09:15:24.541Z,30.80
2018-10-07T09:17:52.893Z,26.20
2018-10-07T09:20:21.338Z,22.40
2018-10-07T09:22:49.925Z,21.50
2018-10-07T09:25:18.229Z,20.73
2018-10-07T09:27:48.044Z,20.93
2018-10-07T09:30:16.280Z,20.17
2018-10-07T09:32:44.640Z,18.40
2018-10-07T09:35:12.799Z,17.27
2018-10-07T09:37:41.013Z,18.13
2018-10-07T09:40:09.244Z,18.10
2018-10-07T09:42:37.425Z,16.90
2018-10-07T09:45:06.080Z,15.70
2018-10-07T09:47:34.485Z,15.73
2018-10-07T09:50:05.023Z,15.70
2018-10-07T09:52:33.240Z,14.37
2018-10-07T09:55:01.946Z,13.43
2018-10-07T09:57:30.230Z,12.07
2018-10-07T10:00:00.640Z,11.90
2018-10-07T10:02:28.775Z,11.97
2018-10-07T10:04:56.909Z,11.03
2018-10-07T10:07:25.205Z,11.07
2018-10-07T10:09:53.423Z,10.80
2018-10-07T10:12:21.709Z,10.77
2018-10-07T10:14:49.841Z,10.10
2018-10-07T10:17:21.033Z,12.13
2018-10-07T10:20:05.517Z,8.50
2018-10-07T10:23:45.736Z,8.27
2018-10-07T10:27:27.854Z,7.77
2018-10-07T10:30:01.975Z,7.17
2018-10-07T10:32:40.815Z,7.97
2018-10-07T10:37:28.153Z,8.37
2018-10-07T10:39:59.961Z,7.80
2018-10-07T10:43:44.666Z,7.80
2018-10-07T10:46:26.524Z,7.90
2018-10-07T10:52:17.104Z,8.73
2018-10-07T10:55:00.469Z,7.20
2018-10-07T10:57:46.022Z,6.93
2018-10-07T11:00:24.574Z,6.70
2018-10-07T11:04:07.274Z,7.13
2018-10-07T11:08:54.185Z,6.50
2018-10-07T11:11:34.893Z,5.13
2018-10-07T11:14:11.807Z,6.00
2018-10-07T11:16:56.823Z,5.30
2018-10-07T11:19:52.309Z,4.83
2018-10-07T11:23:37.590Z,5.03
2018-10-07T11:28:23.892Z,4.60
2018-10-07T11:31:09.231Z,5.40
2018-10-07T11:34:00.045Z,5.13
2018-10-07T11:37:47.044Z,4.50
2018-10-07T11:40:29.183Z,4.83
2018-10-07T11:44:20.008Z,4.30
2018-10-07T11:47:19.571Z,3.80
2018-10-07T11:50:17.547Z,2.80
2018-10-07T11:52:56.170Z,3.93
2018-10-07T11:55:24.294Z,3.23
2018-10-07T11:57:52.536Z,3.00
2018-10-07T12:00:21.013Z,2.60
2018-10-07T12:02:50.153Z,2.63
2018-10-07T12:05:18.507Z,2.30
2018-10-07T12:07:48.405Z,2.17
2018-10-07T12:10:17.366Z,2.20
2018-10-07T12:12:45.891Z,2.20
2018-10-07T12:15:14.227Z,2.30
2018-10-07T12:17:42.454Z,2.10
2018-10-07T12:20:10.811Z,2.03
2018-10-07T12:22:39.905Z,1.80
2018-10-07T12:25:08.892Z,1.87
2018-10-07T12:27:37.330Z,1.90
2018-10-07T12:30:05.918Z,1.90
2018-10-07T12:32:34.902Z,2.43
2018-10-07T12:35:03.263Z,1.70
2018-10-07T12:37:31.626Z,1.77
2018-10-07T12:39:59.992Z,1.50
2018-10-07T12:42:28.722Z,1.30
2018-10-07T12:44:57.572Z,1.17
2018-10-07T12:47:26.164Z,1.57
2018-10-07T12:49:54.517Z,1.50
2018-10-07T12:52:22.939Z,1.50
2018-10-07T12:54:52.098Z,1.40
2018-10-07T12:57:20.460Z,1.43
2018-10-07T12:59:49.096Z,1.10
2018-10-07T13:02:17.507Z,1.50
2018-10-07T13:04:45.692Z,1.30
2018-10-07T13:07:16.015Z,1.20
2018-10-07T13:09:45.401Z,1.70
2018-10-07T13:12:13.507Z,2.00
2018-10-07T13:14:41.823Z,3.47
2018-10-07T13:17:13.468Z,1.60
2018-10-07T13:19:41.754Z,1.80
2018-10-07T13:22:10.001Z,1.90
2018-10-07T13:24:38.136Z,1.70
2018-10-07T13:27:06.396Z,1.90
2018-10-07T13:29:34.632Z,1.80
2018-10-07T13:32:02.779Z,1.47
2018-10-07T13:34:31.018Z,2.23
2018-10-07T13:36:59.416Z,1.93
2018-10-07T13:39:28.345Z,1.90
2018-10-07T13:41:56.493Z,2.00
2018-10-07T13:44:24.677Z,1.70
2018-10-07T13:46:52.903Z,1.70
2018-10-07T13:49:21.063Z,1.70
2018-10-07T13:51:49.251Z,1.90
2018-10-07T13:54:17.404Z,1.40
2018-10-07T13:56:45.545Z,1.70
2018-10-07T13:59:13.756Z,1.80
2018-10-07T14:01:41.952Z,1.70
2018-10-07T14:04:10.088Z,1.63
2018-10-07T14:06:38.328Z,1.13
2018-10-07T14:09:07.895Z,1.40
2018-10-07T14:11:36.122Z,1.40
2018-10-07T14:14:04.207Z,1.50
2018-10-07T14:16:32.488Z,1.30
2018-10-07T14:19:00.615Z,1.00
2018-10-07T14:21:29.020Z,0.83
2018-10-07T14:23:57.185Z,0.90
2018-10-07T14:26:25.349Z,1.00
2018-10-07T14:28:53.615Z,1.00
2018-10-07T14:31:21.769Z,1.00
2018-10-07T14:33:50.920Z,1.00
2018-10-07T14:36:19.051Z,1.00
2018-10-07T14:38:48.061Z,0.80
2018-10-07T14:41:16.193Z,0.70
2018-10-07T14:43:44.530Z,0.80
2018-10-07T14:46:12.897Z,0.97
2018-10-07T14:48:41.235Z,2.00
2018-10-07T14:51:09.518Z,0.70
2018-10-07T14:53:38.885Z,0.60
2018-10-07T14:56:07.252Z,0.90
2018-10-07T14:58:36.165Z,0.57
2018-10-07T15:01:04.481Z,0.60
2018-10-07T15:03:32.646Z,0.73
2018-10-07T15:06:00.874Z,1.00
2018-10-07T15:08:29.114Z,0.83
2018-10-07T15:10:57.279Z,1.00
2018-10-07T15:13:27.214Z,0.70
2018-10-07T15:15:55.366Z,1.10
2018-10-07T15:18:23.513Z,0.80
2018-10-07T15:20:51.756Z,0.90
2018-10-07T15:23:19.989Z,0.60
2018-10-07T15:25:48.248Z,0.70
2018-10-07T15:28:16.582Z,0.60
2018-10-07T15:30:44.873Z,0.70
2018-10-07T15:33:13.131Z,0.43
2018-10-07T15:35:41.518Z,0.67
2018-10-07T15:38:09.739Z,0.70
2018-10-07T15:40:37.916Z,0.70
2018-10-07T15:43:06.908Z,0.67
2018-10-07T15:45:35.158Z,0.50
2018-10-07T15:48:03.366Z,0.70
2018-10-07T15:50:32.593Z,0.80
2018-10-07T15:53:00.758Z,0.60
2018-10-07T15:55:28.889Z,0.50
2018-10-07T15:57:57.061Z,0.83
2018-10-07T16:00:25.329Z,0.80
2018-10-07T16:02:53.447Z,0.70
2018-10-07T16:05:21.617Z,0.93
2018-10-07T16:07:49.773Z,0.70
2018-10-07T16:10:18.116Z,0.60
2018-10-07T16:12:46.555Z,0.83
2018-10-07T16:15:14.643Z,0.70
2018-10-07T16:17:42.853Z,0.90
2018-10-07T16:20:11.055Z,0.70
2018-10-07T16:22:39.255Z,0.70
2018-10-07T16:25:08.431Z,1.03
2018-10-07T16:27:36.720Z,1.10
2018-10-07T16:30:05.134Z,0.87
2018-10-07T16:32:33.565Z,1.07
2018-10-07T16:35:01.810Z,1.10
2018-10-07T16:37:29.936Z,1.40
2018-10-07T16:39:58.781Z,1.27
2018-10-07T16:42:26.997Z,1.40
2018-10-07T16:44:55.299Z,1.30
2018-10-07T16:47:23.601Z,0.90
2018-10-07T16:49:51.817Z,1.00
2018-10-07T16:52:19.948Z,1.10
2018-10-07T16:54:48.312Z,1.23
2018-10-07T16:57:16.531Z,1.10
2018-10-07T16:59:44.813Z,1.10
2018-10-07T17:02:13.098Z,1.00
2018-10-07T17:04:41.330Z,1.40
2018-10-07T17:07:09.530Z,1.13
2018-10-07T17:09:38.422Z,1.47
2018-10-07T17:12:06.807Z,1.40
2018-10-07T17:14:35.988Z,1.23
2018-10-07T17:17:04.172Z,1.40
2018-10-07T17:19:32.293Z,1.10
2018-10-07T17:22:00.471Z,1.50
2018-10-07T17:24:28.582Z,1.40
2018-10-07T17:27:04.612Z,1.07
2018-10-07T17:29:33.396Z,1.27
2018-10-07T17:32:01.613Z,1.27
2018-10-07T17:34:29.760Z,1.30
2018-10-07T17:36:57.902Z,0.93
2018-10-07T17:39:26.113Z,0.80
2018-10-07T17:41:54.353Z,1.00
2018-10-07T17:44:29.376Z,1.03
2018-10-07T17:46:57.566Z,1.20
2018-10-07T17:49:26.518Z,1.20
2018-10-07T17:51:54.804Z,1.37
2018-10-07T17:54:23.072Z,1.33
2018-10-07T17:56:51.206Z,1.53
2018-10-07T17:59:20.286Z,1.10
2018-10-07T18:01:49.274Z,1.10
2018-10-07T18:04:17.368Z,1.70
2018-10-07T18:06:45.594Z,1.20
2018-10-07T18:09:13.882Z,1.60
2018-10-07T18:11:42.093Z,2.20
2018-10-07T18:14:10.355Z,1.30
2018-10-07T18:16:38.569Z,1.60
2018-10-07T18:19:06.768Z,1.20
2018-10-07T18:21:35.085Z,1.23
2018-10-07T18:24:03.341Z,1.20
2018-10-07T18:26:32.041Z,1.20
2018-10-07T18:29:00.426Z,1.10
2018-10-07T18:31:28.687Z,1.20
2018-10-07T18:33:57.251Z,1.30
2018-10-07T18:36:25.667Z,1.20
2018-10-07T18:38:54.138Z,1.30
2018-10-07T18:41:22.385Z,1.40
2018-10-07T18:43:50.615Z,1.40
2018-10-07T18:46:18.766Z,1.50
2018-10-07T18:48:47.669Z,1.30
2018-10-07T18:51:15.723Z,1.33
2018-10-07T18:53:43.936Z,1.53
2018-10-07T18:56:12.132Z,1.30
2018-10-07T18:58:40.338Z,1.30
2018-10-07T19:01:08.687Z,1.50
2018-10-07T19:03:36.854Z,1.17
2018-10-07T19:06:05.038Z,1.27
2018-10-07T19:08:33.355Z,1.20
2018-10-07T19:11:01.562Z,1.20
2018-10-07T19:13:29.765Z,1.40
2018-10-07T19:15:57.939Z,1.40
2018-10-07T19:18:26.021Z,1.40
2018-10-07T19:20:54.293Z,1.93
2018-10-07T19:23:22.482Z,1.90
2018-10-07T19:25:50.846Z,1.83
2018-10-07T19:28:19.035Z,1.50
2018-10-07T19:30:47.262Z,1.90
2018-10-07T19:33:15.445Z,1.77
2018-10-07T19:35:43.614Z,1.77
2018-10-07T19:38:12.078Z,1.80
2018-10-07T19:40:40.296Z,1.80
2018-10-07T19:43:08.657Z,2.23
2018-10-07T19:45:36.901Z,2.40
2018-10-07T19:48:05.143Z,2.80
2018-10-07T19:50:33.357Z,2.50
2018-10-07T19:53:01.587Z,2.37
2018-10-07T19:55:29.776Z,2.33
2018-10-07T19:57:58.065Z,2.67
2018-10-07T20:00:26.959Z,2.80
2018-10-07T20:02:56.073Z,2.97
2018-10-07T20:05:24.279Z,2.47
2018-10-07T20:07:52.387Z,2.90
2018-10-07T20:10:20.814Z,2.40
2018-10-07T20:12:49.051Z,2.63
2018-10-07T20:15:17.460Z,2.70
2018-10-07T20:17:45.527Z,2.90
2018-10-07T20:20:13.819Z,2.30
2018-10-07T20:22:42.012Z,2.93
2018-10-07T20:25:10.182Z,3.73
2018-10-07T20:27:38.270Z,2.70
2018-10-07T20:30:06.797Z,3.30
2018-10-07T20:32:35.002Z,2.90
2018-10-07T20:35:03.331Z,3.00
2018-10-07T20:37:31.529Z,3.00
2018-10-07T20:40:01.414Z,3.10
2018-10-07T20:42:29.678Z,3.27
2018-10-07T20:44:58.047Z,2.60
2018-10-07T20:47:26.400Z,2.97
2018-10-07T20:49:54.816Z,2.90
2018-10-07T20:52:22.997Z,3.33
2018-10-07T20:54:51.213Z,3.20
2018-10-07T20:57:19.477Z,2.93
2018-10-07T20:59:47.656Z,3.07
2018-10-07T21:02:15.818Z,2.77
2018-10-07T21:04:44.708Z,3.27
2018-10-07T21:07:12.966Z,2.93
2018-10-07T21:09:41.085Z,3.60
2018-10-07T21:12:09.932Z,2.53
2018-10-07T21:14:38.130Z,3.90
2018-10-07T21:17:07.181Z,4.23
2018-10-07T21:19:36.074Z,4.43
2018-10-07T21:22:04.328Z,4.47
2018-10-07T21:24:32.590Z,4.37
2018-10-07T21:27:00.788Z,5.60
2018-10-07T21:29:29.080Z,4.47
2018-10-07T21:31:57.893Z,5.00
2018-10-07T21:34:26.100Z,5.33
2018-10-07T21:36:57.695Z,5.40
2018-10-07T21:39:26.088Z,4.90
2018-10-07T21:41:54.258Z,4.67
2018-10-07T21:44:22.580Z,4.30
2018-10-07T21:46:51.022Z,5.40
2018-10-07T21:49:19.122Z,4.47
2018-10-07T21:51:47.906Z,4.17
2018-10-07T21:54:16.330Z,4.47
2018-10-07T21:56:44.568Z,4.57
2018-10-07T21:59:13.656Z,4.13
2018-10-07T22:01:43.229Z,4.20
2018-10-07T22:04:11.860Z,4.17
2018-10-07T22:06:40.181Z,4.43
2018-10-07T22:09:09.707Z,5.07
2018-10-07T22:11:39.472Z,4.67
2018-10-07T22:14:08.953Z,4.37
2018-10-07T22:16:38.210Z,5.70
2018-10-07T22:19:06.581Z,5.03
2018-10-07T22:21:34.718Z,5.60
2018-10-07T22:24:02.976Z,4.97
2018-10-07T22:26:32.181Z,6.67
2018-10-07T22:29:00.644Z,5.40
2018-10-07T22:31:28.988Z,5.47
2018-10-07T22:33:57.814Z,5.40
2018-10-07T22:36:25.921Z,5.20
2018-10-07T22:38:54.227Z,5.37
2018-10-07T22:41:22.596Z,5.03
2018-10-07T22:43:52.208Z,5.00
2018-10-07T22:46:20.785Z,4.70
2018-10-07T22:48:49.167Z,4.47
2018-10-07T22:51:17.450Z,4.10
2018-10-07T22:53:46.311Z,4.10
2018-10-07T22:56:14.600Z,4.17
2018-10-07T22:58:42.919Z,3.93
2018-10-07T23:01:11.230Z,3.93
2018-10-07T23:03:39.533Z,4.20
2018-10-07T23:06:07.812Z,4.10
2018-10-07T23:08:36.127Z,5.23
2018-10-07T23:11:04.301Z,4.57
2018-10-07T23:13:32.523Z,4.73
2018-10-07T23:16:00.746Z,5.00
2018-10-07T23:18:29.642Z,5.07
2018-10-07T23:20:57.835Z,6.50
2018-10-07T23:23:26.086Z,4.37
2018-10-07T23:25:55.119Z,4.47
2018-10-07T23:28:23.431Z,5.17
2018-10-07T23:30:51.555Z,4.70
2018-10-07T23:33:19.708Z,4.80
2018-10-07T23:35:48.112Z,4.90
2018-10-07T23:38:16.432Z,4.73
2018-10-07T23:40:47.146Z,4.73
2018-10-07T23:43:16.059Z,5.07
2018-10-07T23:45:44.344Z,5.43
2018-10-07T23:48:13.196Z,5.43
2018-10-07T23:50:41.908Z,4.87
2018-10-07T23:53:10.273Z,4.60
2018-10-07T23:55:38.979Z,4.57
2018-10-07T23:58:07.236Z,4.13
